SFR233 FAPE-FAOR
Flight info
| Callsign | SFR233 |
|---|---|
| Flight time | N/A |
| Altitude | 31000 |
| Route | PEV DCT ITKIT UZ5 UNPOM UNPOM1B |
| Aircraft | B738/M-SDE2E3FGHIRWXY/LB1 |
Departure
| Time | 2026-05-05 16:50 |
|---|---|
| Airport | Chief Dawid Stuurman International Airport (FAPE) |
Arrival
| Time | N/A |
|---|---|
| Airport | O.R. Tambo International Airport (FAOR) |
| Time | Latitude | Longitude | Altitude | Speed | Heading |
|---|---|---|---|---|---|
| 2026-05-05 16:34 | -33.98436 | 25.61257 | 216 ft | 0 kts | 328° |
| 2026-05-05 16:42 | -33.98448 | 25.61266 | 216 ft | 2 kts | 328° |
| 2026-05-05 16:42 | -33.98462 | 25.61276 | 211 ft | 2 kts | 329° |
| 2026-05-05 16:42 | -33.98476 | 25.61285 | 213 ft | 2 kts | 341° |
| 2026-05-05 16:43 | -33.98491 | 25.61284 | 212 ft | 2 kts | 54° |
| 2026-05-05 16:43 | -33.98494 | 25.61279 | 212 ft | 0 kts | 56° |
| 2026-05-05 16:47 | -33.98493 | 25.61281 | 212 ft | 3 kts | 56° |
| 2026-05-05 16:47 | -33.98454 | 25.61356 | 215 ft | 16 kts | 58° |
| 2026-05-05 16:47 | -33.98422 | 25.61465 | 216 ft | 16 kts | 62° |
| 2026-05-05 16:47 | -33.98421 | 25.61467 | 216 ft | 16 kts | 62° |
| 2026-05-05 16:48 | -33.98359 | 25.61579 | 215 ft | 20 kts | 58° |
| 2026-05-05 16:48 | -33.98264 | 25.61763 | 221 ft | 26 kts | 58° |
| 2026-05-05 16:48 | -33.98264 | 25.61912 | 211 ft | 19 kts | 148° |
| 2026-05-05 16:48 | -33.98367 | 25.61959 | 219 ft | 10 kts | 210° |
| 2026-05-05 16:49 | -33.98410 | 25.61889 | 216 ft | 13 kts | 238° |
| 2026-05-05 16:49 | -33.98548 | 25.61623 | 215 ft | 72 kts | 237° |
| 2026-05-05 16:49 | -33.98936 | 25.60876 | 215 ft | 136 kts | 238° |
| 2026-05-05 16:49 | -33.99500 | 25.59775 | 579 ft | 158 kts | 234° |
| 2026-05-05 16:50 | -34.00144 | 25.58634 | 1122 ft | 174 kts | 230° |
| 2026-05-05 16:50 | -34.00862 | 25.57442 | 1891 ft | 177 kts | 228° |
| 2026-05-05 16:50 | -34.01618 | 25.56186 | 2393 ft | 199 kts | 228° |
| 2026-05-05 16:50 | -34.02379 | 25.54655 | 2590 ft | 230 kts | 248° |
| 2026-05-05 16:51 | -34.02458 | 25.52639 | 2919 ft | 254 kts | 278° |
| 2026-05-05 16:51 | -34.01658 | 25.50645 | 3208 ft | 277 kts | 314° |
| 2026-05-05 16:51 | -34.00011 | 25.49429 | 3895 ft | 281 kts | 347° |
| 2026-05-05 16:51 | -33.98093 | 25.49276 | 4785 ft | 276 kts | 13° |
| 2026-05-05 16:52 | -33.96257 | 25.49952 | 5585 ft | 279 kts | 19° |
| 2026-05-05 16:52 | -33.94300 | 25.50210 | 6379 ft | 286 kts | 3° |
| 2026-05-05 16:52 | -33.92304 | 25.50238 | 7229 ft | 287 kts | 4° |
| 2026-05-05 16:52 | -33.90303 | 25.50282 | 8039 ft | 289 kts | 4° |
| 2026-05-05 16:53 | -33.88283 | 25.50332 | 8830 ft | 291 kts | 4° |
| 2026-05-05 16:53 | -33.86246 | 25.50377 | 9620 ft | 294 kts | 4° |
| 2026-05-05 16:53 | -33.84214 | 25.50434 | 10304 ft | 300 kts | 4° |
| 2026-05-05 16:53 | -33.82043 | 25.50502 | 10505 ft | 324 kts | 4° |
| 2026-05-05 16:54 | -33.79719 | 25.50674 | 10663 ft | 345 kts | 13° |
| 2026-05-05 16:54 | -33.77416 | 25.51644 | 11014 ft | 356 kts | 27° |
| 2026-05-05 16:54 | -33.75184 | 25.52983 | 11668 ft | 359 kts | 29° |
| 2026-05-05 16:54 | -33.72974 | 25.54384 | 12474 ft | 359 kts | 29° |
| 2026-05-05 16:55 | -33.70756 | 25.55838 | 12895 ft | 368 kts | 30° |
| 2026-05-05 16:55 | -33.68706 | 25.57614 | 13825 ft | 362 kts | 43° |
| 2026-05-05 16:55 | -33.66937 | 25.59715 | 14502 ft | 363 kts | 45° |
| 2026-05-05 16:55 | -33.65149 | 25.61886 | 15075 ft | 368 kts | 45° |
| 2026-05-05 16:56 | -33.63350 | 25.64084 | 15715 ft | 370 kts | 45° |
| 2026-05-05 16:56 | -33.61564 | 25.66333 | 16331 ft | 373 kts | 46° |
| 2026-05-05 16:56 | -33.59841 | 25.68691 | 16889 ft | 378 kts | 47° |
| 2026-05-05 16:56 | -33.58135 | 25.71114 | 17449 ft | 383 kts | 48° |
| 2026-05-05 16:57 | -33.56427 | 25.73585 | 18031 ft | 386 kts | 48° |
| 2026-05-05 16:57 | -33.54660 | 25.76039 | 18560 ft | 387 kts | 40° |
| 2026-05-05 16:57 | -33.52553 | 25.78028 | 19140 ft | 384 kts | 32° |
| 2026-05-05 16:57 | -33.50338 | 25.79825 | 19750 ft | 384 kts | 31° |
| 2026-05-05 16:58 | -33.48136 | 25.81569 | 20321 ft | 385 kts | 30° |
| 2026-05-05 16:58 | -33.45895 | 25.83335 | 20963 ft | 386 kts | 32° |
| 2026-05-05 16:58 | -33.43593 | 25.85066 | 20943 ft | 395 kts | 29° |
| 2026-05-05 16:58 | -33.41326 | 25.86810 | 22022 ft | 381 kts | 29° |
| 2026-05-05 16:59 | -33.39144 | 25.88590 | 22714 ft | 380 kts | 30° |
| 2026-05-05 16:59 | -33.36953 | 25.90413 | 23009 ft | 386 kts | 30° |
| 2026-05-05 16:59 | -33.34735 | 25.92268 | 23387 ft | 390 kts | 30° |
| 2026-05-05 16:59 | -33.32520 | 25.94131 | 23831 ft | 390 kts | 30° |
| 2026-05-05 17:00 | -33.30302 | 25.96011 | 24257 ft | 390 kts | 30° |
| 2026-05-05 17:00 | -33.28101 | 25.97909 | 24751 ft | 389 kts | 30° |
| 2026-05-05 17:00 | -33.25913 | 25.99822 | 25172 ft | 391 kts | 31° |
| 2026-05-05 17:00 | -33.23944 | 26.02135 | 25460 ft | 408 kts | 47° |
| 2026-05-05 17:01 | -33.22630 | 26.05175 | 25776 ft | 429 kts | 64° |
| 2026-05-05 17:01 | -33.21983 | 26.08722 | 26243 ft | 439 kts | 72° |
| 2026-05-05 17:01 | -33.21474 | 26.12287 | 26829 ft | 429 kts | 66° |
| 2026-05-05 17:01 | -33.20656 | 26.15684 | 27260 ft | 424 kts | 63° |
| 2026-05-05 17:02 | -33.19681 | 26.19002 | 27673 ft | 423 kts | 66° |
| 2026-05-05 17:02 | -33.18451 | 26.22238 | 27556 ft | 434 kts | 56° |
| 2026-05-05 17:02 | -33.17362 | 26.25662 | 27643 ft | 447 kts | 59° |
| 2026-05-05 17:02 | -33.16319 | 26.29203 | 27735 ft | 456 kts | 60° |
| 2026-05-05 17:03 | -33.15154 | 26.32719 | 27857 ft | 449 kts | 49° |
| 2026-05-05 17:03 | -33.13280 | 26.35562 | 28062 ft | 427 kts | 32° |
| 2026-05-05 17:03 | -33.11009 | 26.37750 | 28519 ft | 413 kts | 24° |
| 2026-05-05 17:03 | -33.08575 | 26.39457 | 29056 ft | 398 kts | 15° |
| 2026-05-05 17:04 | -33.06059 | 26.40492 | 29620 ft | 382 kts | 5° |
| 2026-05-05 17:04 | -33.03481 | 26.41234 | 30049 ft | 380 kts | 5° |
| 2026-05-05 17:04 | -33.00908 | 26.41940 | 30414 ft | 379 kts | 4° |
| 2026-05-05 17:04 | -32.98351 | 26.42638 | 30837 ft | 376 kts | 4° |
| 2026-05-05 17:05 | -32.95788 | 26.43344 | 30948 ft | 381 kts | 5° |
| 2026-05-05 17:05 | -32.93183 | 26.44065 | 30960 ft | 386 kts | 5° |
| 2026-05-05 17:05 | -32.87868 | 26.45560 | 30967 ft | 397 kts | 5° |
| 2026-05-05 17:06 | -32.82515 | 26.47088 | 30967 ft | 398 kts | 5° |
| 2026-05-05 17:06 | -32.77122 | 26.48632 | 30950 ft | 397 kts | 5° |
| 2026-05-05 17:07 | -32.71743 | 26.50166 | 30961 ft | 397 kts | 5° |
| 2026-05-05 17:07 | -32.66368 | 26.51696 | 30964 ft | 397 kts | 5° |
| 2026-05-05 17:08 | -32.60997 | 26.53223 | 30953 ft | 395 kts | 5° |
| 2026-05-05 17:08 | -32.55699 | 26.54727 | 30948 ft | 393 kts | 5° |
| 2026-05-05 17:09 | -32.50392 | 26.56230 | 30942 ft | 391 kts | 6° |
| 2026-05-05 17:09 | -32.45108 | 26.57726 | 30920 ft | 389 kts | 6° |
| 2026-05-05 17:10 | -32.40743 | 26.58964 | 30938 ft | 387 kts | 6° |
| 2026-05-05 17:10 | -32.34674 | 26.60675 | 30933 ft | 385 kts | 6° |
| 2026-05-05 17:11 | -32.29474 | 26.62141 | 30948 ft | 383 kts | 6° |
| 2026-05-05 17:11 | -32.25139 | 26.63361 | 30928 ft | 387 kts | 6° |
| 2026-05-05 17:12 | -32.19869 | 26.65019 | 30940 ft | 396 kts | 10° |
| 2026-05-05 17:12 | -32.13783 | 26.67513 | 30927 ft | 399 kts | 11° |
| 2026-05-05 17:13 | -32.09395 | 26.69338 | 30929 ft | 399 kts | 11° |
| 2026-05-05 17:13 | -32.04152 | 26.71489 | 30921 ft | 399 kts | 11° |
| 2026-05-05 17:14 | -31.98945 | 26.73602 | 30909 ft | 397 kts | 11° |
| 2026-05-05 17:14 | -31.93721 | 26.75712 | 30908 ft | 396 kts | 11° |
| 2026-05-05 17:15 | -31.88504 | 26.77814 | 30914 ft | 395 kts | 11° |
| 2026-05-05 17:15 | -31.83295 | 26.79910 | 30916 ft | 395 kts | 11° |
| 2026-05-05 17:16 | -31.78124 | 26.81988 | 30912 ft | 394 kts | 11° |
| 2026-05-05 17:16 | -31.72933 | 26.84074 | 30905 ft | 394 kts | 11° |
| 2026-05-05 17:17 | -31.67739 | 26.86156 | 30921 ft | 395 kts | 11° |
| 2026-05-05 17:17 | -31.62543 | 26.88238 | 30900 ft | 394 kts | 11° |
| 2026-05-05 17:18 | -31.57352 | 26.90313 | 30906 ft | 393 kts | 11° |
| 2026-05-05 17:18 | -31.52209 | 26.92370 | 30926 ft | 392 kts | 11° |
| 2026-05-05 17:19 | -31.47034 | 26.94435 | 30886 ft | 394 kts | 11° |
| 2026-05-05 17:19 | -31.41833 | 26.96508 | 30906 ft | 395 kts | 11° |
| 2026-05-05 17:20 | -31.36604 | 26.98590 | 30925 ft | 397 kts | 11° |
| 2026-05-05 17:20 | -31.31349 | 27.00680 | 30927 ft | 399 kts | 11° |
| 2026-05-05 17:21 | -31.26079 | 27.02774 | 30913 ft | 400 kts | 11° |
| 2026-05-05 17:22 | -31.18154 | 27.05920 | 30915 ft | 401 kts | 11° |
| 2026-05-05 17:22 | -31.12905 | 27.08001 | 30925 ft | 401 kts | 11° |
| 2026-05-05 17:23 | -31.07613 | 27.10096 | 30926 ft | 400 kts | 11° |
| 2026-05-05 17:23 | -31.02348 | 27.12177 | 30928 ft | 399 kts | 11° |
| 2026-05-05 17:24 | -30.97096 | 27.14250 | 30927 ft | 398 kts | 11° |
| 2026-05-05 17:24 | -30.91877 | 27.16309 | 30919 ft | 397 kts | 11° |
| 2026-05-05 17:25 | -30.86638 | 27.18373 | 30914 ft | 396 kts | 11° |
| 2026-05-05 17:25 | -30.81452 | 27.20413 | 30928 ft | 395 kts | 11° |
| 2026-05-05 17:26 | -30.76234 | 27.22462 | 30922 ft | 395 kts | 11° |
| 2026-05-05 17:26 | -30.71049 | 27.24498 | 30931 ft | 397 kts | 11° |
| 2026-05-05 17:27 | -30.65803 | 27.26559 | 30928 ft | 399 kts | 11° |
| 2026-05-05 17:27 | -30.63185 | 27.27592 | 31030 ft | 392 kts | 11° |
| 2026-05-05 17:27 | -30.60650 | 27.28601 | 30958 ft | 377 kts | 11° |
| 2026-05-05 17:28 | -30.55772 | 27.30536 | 30933 ft | 371 kts | 10° |